sensor_id;sensor_type;location;lat;lon;timestamp;P1;durP1;ratioP1;P2;durP2;ratioP2
49223;SDS011;35050;51.316;5.994;2023-05-07T00:02:02;3.58;;;1.95;;
49223;SDS011;35050;51.316;5.994;2023-05-07T00:04:28;4.53;;;2.03;;
49223;SDS011;35050;51.316;5.994;2023-05-07T00:07:00;1.85;;;1.70;;
49223;SDS011;35050;51.316;5.994;2023-05-07T00:09:26;1.83;;;1.67;;
49223;SDS011;35050;51.316;5.994;2023-05-07T00:11:52;2.22;;;1.95;;
49223;SDS011;35050;51.316;5.994;2023-05-07T00:14:18;2.03;;;1.85;;
49223;SDS011;35050;51.316;5.994;2023-05-07T00:16:43;2.40;;;2.10;;
49223;SDS011;35050;51.316;5.994;2023-05-07T00:19:09;3.47;;;1.77;;
49223;SDS011;35050;51.316;5.994;2023-05-07T00:21:35;1.83;;;1.63;;
49223;SDS011;35050;51.316;5.994;2023-05-07T00:24:00;2.83;;;2.22;;
49223;SDS011;35050;51.316;5.994;2023-05-07T00:26:26;2.35;;;2.00;;
49223;SDS011;35050;51.316;5.994;2023-05-07T00:28:52;2.08;;;1.88;;
49223;SDS011;35050;51.316;5.994;2023-05-07T00:31:17;2.60;;;2.40;;
49223;SDS011;35050;51.316;5.994;2023-05-07T00:33:43;2.80;;;2.40;;
49223;SDS011;35050;51.316;5.994;2023-05-07T00:36:08;2.55;;;2.35;;
49223;SDS011;35050;51.316;5.994;2023-05-07T00:38:34;2.50;;;2.30;;
49223;SDS011;35050;51.316;5.994;2023-05-07T00:41:00;3.25;;;2.50;;
49223;SDS011;35050;51.316;5.994;2023-05-07T00:43:27;2.67;;;2.40;;
49223;SDS011;35050;51.316;5.994;2023-05-07T00:45:52;2.60;;;2.40;;
49223;SDS011;35050;51.316;5.994;2023-05-07T00:48:18;2.40;;;2.20;;
49223;SDS011;35050;51.316;5.994;2023-05-07T00:50:45;2.97;;;2.45;;
49223;SDS011;35050;51.316;5.994;2023-05-07T00:53:12;2.70;;;2.50;;
49223;SDS011;35050;51.316;5.994;2023-05-07T00:55:38;2.47;;;2.10;;
49223;SDS011;35050;51.316;5.994;2023-05-07T00:58:04;3.20;;;2.40;;
49223;SDS011;35050;51.316;5.994;2023-05-07T01:00:30;2.17;;;1.98;;
49223;SDS011;35050;51.316;5.994;2023-05-07T01:02:56;2.20;;;2.00;;
49223;SDS011;35050;51.316;5.994;2023-05-07T01:05:23;2.55;;;2.35;;
49223;SDS011;35050;51.316;5.994;2023-05-07T01:07:51;3.00;;;2.70;;
49223;SDS011;35050;51.316;5.994;2023-05-07T01:10:19;2.97;;;2.60;;
49223;SDS011;35050;51.316;5.994;2023-05-07T01:12:45;3.08;;;2.83;;
49223;SDS011;35050;51.316;5.994;2023-05-07T01:15:13;3.15;;;2.83;;
49223;SDS011;35050;51.316;5.994;2023-05-07T01:17:40;3.17;;;2.58;;
49223;SDS011;35050;51.316;5.994;2023-05-07T01:20:07;3.00;;;2.80;;
49223;SDS011;35050;51.316;5.994;2023-05-07T01:22:39;2.92;;;2.55;;
49223;SDS011;35050;51.316;5.994;2023-05-07T01:25:06;4.20;;;3.20;;
49223;SDS011;35050;51.316;5.994;2023-05-07T01:27:33;2.90;;;2.60;;
49223;SDS011;35050;51.316;5.994;2023-05-07T01:30:00;2.63;;;2.42;;
49223;SDS011;35050;51.316;5.994;2023-05-07T01:32:32;3.67;;;2.75;;
49223;SDS011;35050;51.316;5.994;2023-05-07T01:35:02;3.22;;;2.85;;
49223;SDS011;35050;51.316;5.994;2023-05-07T01:37:31;4.47;;;2.97;;
49223;SDS011;35050;51.316;5.994;2023-05-07T01:39:57;3.50;;;2.78;;
49223;SDS011;35050;51.316;5.994;2023-05-07T01:42:22;4.30;;;3.75;;
49223;SDS011;35050;51.316;5.994;2023-05-07T01:44:48;4.43;;;3.13;;
49223;SDS011;35050;51.316;5.994;2023-05-07T01:47:14;4.65;;;2.97;;
49223;SDS011;35050;51.316;5.994;2023-05-07T01:49:41;3.08;;;2.80;;
49223;SDS011;35050;51.316;5.994;2023-05-07T01:52:07;3.55;;;2.53;;
49223;SDS011;35050;51.316;5.994;2023-05-07T01:54:35;2.20;;;1.98;;
49223;SDS011;35050;51.316;5.994;2023-05-07T01:57:00;2.97;;;2.67;;
49223;SDS011;35050;51.316;5.994;2023-05-07T01:59:26;3.65;;;3.00;;
49223;SDS011;35050;51.316;5.994;2023-05-07T02:01:52;3.15;;;2.85;;
49223;SDS011;35050;51.316;5.994;2023-05-07T02:04:17;3.50;;;3.20;;
49223;SDS011;35050;51.316;5.994;2023-05-07T02:06:43;2.80;;;2.60;;
49223;SDS011;35050;51.316;5.994;2023-05-07T02:09:09;3.05;;;2.85;;
49223;SDS011;35050;51.316;5.994;2023-05-07T02:11:35;2.78;;;2.58;;
49223;SDS011;35050;51.316;5.994;2023-05-07T02:14:00;3.47;;;2.65;;
49223;SDS011;35050;51.316;5.994;2023-05-07T02:16:26;2.60;;;2.40;;
49223;SDS011;35050;51.316;5.994;2023-05-07T02:18:52;2.90;;;2.70;;
49223;SDS011;35050;51.316;5.994;2023-05-07T02:21:17;2.40;;;2.20;;
49223;SDS011;35050;51.316;5.994;2023-05-07T02:23:43;2.95;;;2.38;;
49223;SDS011;35050;51.316;5.994;2023-05-07T02:26:08;3.17;;;2.45;;
49223;SDS011;35050;51.316;5.994;2023-05-07T02:28:34;2.80;;;2.50;;
49223;SDS011;35050;51.316;5.994;2023-05-07T02:31:02;2.53;;;2.33;;
49223;SDS011;35050;51.316;5.994;2023-05-07T02:33:31;2.80;;;2.60;;
49223;SDS011;35050;51.316;5.994;2023-05-07T02:35:56;2.70;;;2.50;;
49223;SDS011;35050;51.316;5.994;2023-05-07T02:38:29;2.85;;;2.63;;
49223;SDS011;35050;51.316;5.994;2023-05-07T02:40:55;2.75;;;2.53;;
49223;SDS011;35050;51.316;5.994;2023-05-07T02:43:20;3.33;;;2.50;;
49223;SDS011;35050;51.316;5.994;2023-05-07T02:45:46;2.90;;;2.60;;
49223;SDS011;35050;51.316;5.994;2023-05-07T02:48:11;2.75;;;2.55;;
49223;SDS011;35050;51.316;5.994;2023-05-07T02:50:37;2.70;;;2.33;;
49223;SDS011;35050;51.316;5.994;2023-05-07T02:53:03;6.40;;;2.88;;
49223;SDS011;35050;51.316;5.994;2023-05-07T02:55:28;3.08;;;2.65;;
49223;SDS011;35050;51.316;5.994;2023-05-07T02:57:54;3.33;;;2.63;;
49223;SDS011;35050;51.316;5.994;2023-05-07T03:00:20;3.58;;;3.28;;
49223;SDS011;35050;51.316;5.994;2023-05-07T03:02:46;3.25;;;2.95;;
49223;SDS011;35050;51.316;5.994;2023-05-07T03:05:12;3.40;;;2.83;;
49223;SDS011;35050;51.316;5.994;2023-05-07T03:07:39;3.08;;;2.78;;
49223;SDS011;35050;51.316;5.994;2023-05-07T03:10:05;3.08;;;2.83;;
49223;SDS011;35050;51.316;5.994;2023-05-07T03:12:31;2.85;;;2.65;;
49223;SDS011;35050;51.316;5.994;2023-05-07T03:14:56;3.20;;;2.67;;
49223;SDS011;35050;51.316;5.994;2023-05-07T03:17:22;3.05;;;2.65;;
49223;SDS011;35050;51.316;5.994;2023-05-07T03:19:48;3.08;;;2.78;;
49223;SDS011;35050;51.316;5.994;2023-05-07T03:22:13;3.22;;;2.47;;
49223;SDS011;35050;51.316;5.994;2023-05-07T03:24:39;2.85;;;2.55;;
49223;SDS011;35050;51.316;5.994;2023-05-07T03:27:05;2.75;;;2.55;;
49223;SDS011;35050;51.316;5.994;2023-05-07T03:29:30;2.67;;;2.47;;
49223;SDS011;35050;51.316;5.994;2023-05-07T03:31:56;2.70;;;2.50;;
49223;SDS011;35050;51.316;5.994;2023-05-07T03:34:22;2.92;;;2.65;;
49223;SDS011;35050;51.316;5.994;2023-05-07T03:36:50;2.25;;;2.05;;
49223;SDS011;35050;51.316;5.994;2023-05-07T03:39:16;3.20;;;2.60;;
49223;SDS011;35050;51.316;5.994;2023-05-07T03:41:42;2.40;;;2.20;;
49223;SDS011;35050;51.316;5.994;2023-05-07T03:44:07;2.17;;;2.00;;
49223;SDS011;35050;51.316;5.994;2023-05-07T03:46:33;2.40;;;2.20;;
49223;SDS011;35050;51.316;5.994;2023-05-07T03:48:59;2.85;;;2.55;;
49223;SDS011;35050;51.316;5.994;2023-05-07T03:51:25;3.13;;;2.83;;
49223;SDS011;35050;51.316;5.994;2023-05-07T03:53:51;2.47;;;2.28;;
49223;SDS011;35050;51.316;5.994;2023-05-07T03:56:22;3.17;;;2.70;;
49223;SDS011;35050;51.316;5.994;2023-05-07T03:58:47;4.82;;;3.22;;
49223;SDS011;35050;51.316;5.994;2023-05-07T04:01:13;3.10;;;2.80;;
49223;SDS011;35050;51.316;5.994;2023-05-07T04:03:39;2.97;;;2.70;;
49223;SDS011;35050;51.316;5.994;2023-05-07T04:06:04;2.97;;;2.67;;
49223;SDS011;35050;51.316;5.994;2023-05-07T04:08:30;4.07;;;2.85;;
49223;SDS011;35050;51.316;5.994;2023-05-07T04:10:56;2.50;;;2.30;;
49223;SDS011;35050;51.316;5.994;2023-05-07T04:13:22;3.65;;;2.70;;
49223;SDS011;35050;51.316;5.994;2023-05-07T04:15:48;3.60;;;3.10;;
49223;SDS011;35050;51.316;5.994;2023-05-07T04:18:14;3.63;;;2.97;;
49223;SDS011;35050;51.316;5.994;2023-05-07T04:20:40;3.05;;;2.80;;
49223;SDS011;35050;51.316;5.994;2023-05-07T04:23:06;3.85;;;3.17;;
49223;SDS011;35050;51.316;5.994;2023-05-07T04:25:32;3.42;;;2.58;;
49223;SDS011;35050;51.316;5.994;2023-05-07T04:27:58;3.20;;;2.90;;
49223;SDS011;35050;51.316;5.994;2023-05-07T04:30:23;3.60;;;3.28;;
49223;SDS011;35050;51.316;5.994;2023-05-07T04:32:49;3.70;;;2.90;;
49223;SDS011;35050;51.316;5.994;2023-05-07T04:35:15;2.85;;;2.47;;
49223;SDS011;35050;51.316;5.994;2023-05-07T04:37:41;2.75;;;2.55;;
49223;SDS011;35050;51.316;5.994;2023-05-07T04:40:06;2.83;;;2.60;;
49223;SDS011;35050;51.316;5.994;2023-05-07T04:42:32;2.55;;;2.35;;
49223;SDS011;35050;51.316;5.994;2023-05-07T04:44:58;2.88;;;2.40;;
49223;SDS011;35050;51.316;5.994;2023-05-07T04:47:24;3.03;;;2.63;;
49223;SDS011;35050;51.316;5.994;2023-05-07T04:49:49;2.30;;;2.00;;
49223;SDS011;35050;51.316;5.994;2023-05-07T04:52:15;2.47;;;2.28;;
49223;SDS011;35050;51.316;5.994;2023-05-07T04:54:41;2.42;;;2.22;;
49223;SDS011;35050;51.316;5.994;2023-05-07T04:57:07;2.35;;;2.15;;
49223;SDS011;35050;51.316;5.994;2023-05-07T04:59:33;2.47;;;2.17;;
49223;SDS011;35050;51.316;5.994;2023-05-07T05:01:58;2.38;;;2.17;;
49223;SDS011;35050;51.316;5.994;2023-05-07T05:04:24;2.15;;;1.95;;
49223;SDS011;35050;51.316;5.994;2023-05-07T05:06:50;2.13;;;2.00;;
49223;SDS011;35050;51.316;5.994;2023-05-07T05:09:16;2.20;;;2.00;;
49223;SDS011;35050;51.316;5.994;2023-05-07T05:11:41;3.35;;;2.30;;
49223;SDS011;35050;51.316;5.994;2023-05-07T05:14:07;2.47;;;2.20;;
49223;SDS011;35050;51.316;5.994;2023-05-07T05:16:33;2.90;;;2.42;;
49223;SDS011;35050;51.316;5.994;2023-05-07T05:18:59;2.60;;;2.40;;
49223;SDS011;35050;51.316;5.994;2023-05-07T05:21:24;2.40;;;2.17;;
49223;SDS011;35050;51.316;5.994;2023-05-07T05:23:50;2.60;;;2.30;;
49223;SDS011;35050;51.316;5.994;2023-05-07T05:26:16;2.63;;;2.42;;
49223;SDS011;35050;51.316;5.994;2023-05-07T05:28:42;2.30;;;2.10;;
49223;SDS011;35050;51.316;5.994;2023-05-07T05:31:08;2.22;;;2.03;;
49223;SDS011;35050;51.316;5.994;2023-05-07T05:33:33;2.75;;;2.15;;
49223;SDS011;35050;51.316;5.994;2023-05-07T05:35:59;2.53;;;2.10;;
49223;SDS011;35050;51.316;5.994;2023-05-07T05:38:26;2.47;;;2.28;;
49223;SDS011;35050;51.316;5.994;2023-05-07T05:40:51;2.22;;;2.03;;
49223;SDS011;35050;51.316;5.994;2023-05-07T05:43:17;2.15;;;1.95;;
49223;SDS011;35050;51.316;5.994;2023-05-07T05:45:42;3.28;;;2.00;;
49223;SDS011;35050;51.316;5.994;2023-05-07T05:48:08;2.10;;;1.90;;
49223;SDS011;35050;51.316;5.994;2023-05-07T05:50:34;2.00;;;1.80;;
49223;SDS011;35050;51.316;5.994;2023-05-07T05:53:02;2.20;;;1.88;;
49223;SDS011;35050;51.316;5.994;2023-05-07T05:55:28;2.10;;;1.90;;
49223;SDS011;35050;51.316;5.994;2023-05-07T05:57:54;2.42;;;2.08;;
49223;SDS011;35050;51.316;5.994;2023-05-07T06:00:20;2.88;;;2.20;;
49223;SDS011;35050;51.316;5.994;2023-05-07T06:02:47;3.58;;;2.38;;
49223;SDS011;35050;51.316;5.994;2023-05-07T06:05:13;3.20;;;2.75;;
49223;SDS011;35050;51.316;5.994;2023-05-07T06:07:39;2.33;;;2.13;;
49223;SDS011;35050;51.316;5.994;2023-05-07T06:10:05;2.90;;;2.55;;
49223;SDS011;35050;51.316;5.994;2023-05-07T06:12:31;3.00;;;2.42;;
49223;SDS011;35050;51.316;5.994;2023-05-07T06:14:57;3.28;;;2.30;;
49223;SDS011;35050;51.316;5.994;2023-05-07T06:17:23;2.33;;;2.13;;
49223;SDS011;35050;51.316;5.994;2023-05-07T06:19:48;2.42;;;2.20;;
49223;SDS011;35050;51.316;5.994;2023-05-07T06:22:14;2.30;;;2.10;;
49223;SDS011;35050;51.316;5.994;2023-05-07T06:24:40;2.80;;;1.98;;
49223;SDS011;35050;51.316;5.994;2023-05-07T06:27:05;2.65;;;2.10;;
49223;SDS011;35050;51.316;5.994;2023-05-07T06:29:31;2.58;;;1.95;;
49223;SDS011;35050;51.316;5.994;2023-05-07T06:32:05;2.20;;;2.00;;
49223;SDS011;35050;51.316;5.994;2023-05-07T06:34:35;2.38;;;2.13;;
49223;SDS011;35050;51.316;5.994;2023-05-07T06:37:01;2.83;;;2.30;;
49223;SDS011;35050;51.316;5.994;2023-05-07T06:39:27;2.85;;;2.47;;
49223;SDS011;35050;51.316;5.994;2023-05-07T06:41:52;3.38;;;2.38;;
49223;SDS011;35050;51.316;5.994;2023-05-07T06:44:18;2.53;;;2.30;;
49223;SDS011;35050;51.316;5.994;2023-05-07T06:46:44;2.85;;;2.00;;
49223;SDS011;35050;51.316;5.994;2023-05-07T06:49:10;3.15;;;2.30;;
49223;SDS011;35050;51.316;5.994;2023-05-07T06:51:37;2.50;;;2.30;;
49223;SDS011;35050;51.316;5.994;2023-05-07T06:54:03;2.55;;;2.22;;
49223;SDS011;35050;51.316;5.994;2023-05-07T06:56:29;2.28;;;1.92;;
49223;SDS011;35050;51.316;5.994;2023-05-07T06:58:55;3.97;;;2.50;;
49223;SDS011;35050;51.316;5.994;2023-05-07T07:01:21;2.10;;;1.90;;
49223;SDS011;35050;51.316;5.994;2023-05-07T07:03:47;3.55;;;2.60;;
49223;SDS011;35050;51.316;5.994;2023-05-07T07:06:12;2.50;;;2.25;;
49223;SDS011;35050;51.316;5.994;2023-05-07T07:08:38;2.60;;;2.40;;
49223;SDS011;35050;51.316;5.994;2023-05-07T07:11:04;2.15;;;1.95;;
49223;SDS011;35050;51.316;5.994;2023-05-07T07:13:30;3.55;;;2.50;;
49223;SDS011;35050;51.316;5.994;2023-05-07T07:15:56;2.90;;;2.15;;
49223;SDS011;35050;51.316;5.994;2023-05-07T07:18:22;2.40;;;2.03;;
49223;SDS011;35050;51.316;5.994;2023-05-07T07:20:47;2.28;;;1.80;;
49223;SDS011;35050;51.316;5.994;2023-05-07T07:23:13;3.58;;;2.30;;
49223;SDS011;35050;51.316;5.994;2023-05-07T07:25:39;2.28;;;2.05;;
49223;SDS011;35050;51.316;5.994;2023-05-07T07:28:05;5.07;;;2.00;;
49223;SDS011;35050;51.316;5.994;2023-05-07T07:30:31;2.35;;;2.00;;
49223;SDS011;35050;51.316;5.994;2023-05-07T07:32:56;1.77;;;1.50;;
49223;SDS011;35050;51.316;5.994;2023-05-07T07:35:27;3.22;;;1.90;;
49223;SDS011;35050;51.316;5.994;2023-05-07T07:37:53;2.00;;;1.80;;
49223;SDS011;35050;51.316;5.994;2023-05-07T07:40:19;1.65;;;1.52;;
49223;SDS011;35050;51.316;5.994;2023-05-07T07:42:44;1.80;;;1.70;;
49223;SDS011;35050;51.316;5.994;2023-05-07T07:45:10;2.75;;;2.00;;
49223;SDS011;35050;51.316;5.994;2023-05-07T07:47:37;1.98;;;1.80;;
49223;SDS011;35050;51.316;5.994;2023-05-07T07:50:02;1.70;;;1.60;;
49223;SDS011;35050;51.316;5.994;2023-05-07T07:52:28;1.88;;;1.70;;
49223;SDS011;35050;51.316;5.994;2023-05-07T07:54:54;2.28;;;1.48;;
49223;SDS011;35050;51.316;5.994;2023-05-07T07:57:20;2.65;;;1.67;;
49223;SDS011;35050;51.316;5.994;2023-05-07T07:59:45;1.92;;;1.58;;
49223;SDS011;35050;51.316;5.994;2023-05-07T08:02:11;1.60;;;1.50;;
49223;SDS011;35050;51.316;5.994;2023-05-07T08:04:37;3.10;;;1.80;;
49223;SDS011;35050;51.316;5.994;2023-05-07T08:07:02;1.77;;;1.67;;
49223;SDS011;35050;51.316;5.994;2023-05-07T08:09:28;2.08;;;1.85;;
49223;SDS011;35050;51.316;5.994;2023-05-07T08:11:54;1.85;;;1.70;;
49223;SDS011;35050;51.316;5.994;2023-05-07T08:14:19;2.28;;;1.55;;
49223;SDS011;35050;51.316;5.994;2023-05-07T08:16:45;2.53;;;1.80;;
49223;SDS011;35050;51.316;5.994;2023-05-07T08:19:11;3.13;;;1.83;;
49223;SDS011;35050;51.316;5.994;2023-05-07T08:21:39;3.05;;;2.00;;
49223;SDS011;35050;51.316;5.994;2023-05-07T08:24:05;1.95;;;1.80;;
49223;SDS011;35050;51.316;5.994;2023-05-07T08:26:31;1.60;;;1.45;;
49223;SDS011;35050;51.316;5.994;2023-05-07T08:28:57;2.78;;;1.90;;
49223;SDS011;35050;51.316;5.994;2023-05-07T08:31:23;6.40;;;1.77;;
49223;SDS011;35050;51.316;5.994;2023-05-07T08:33:49;1.90;;;1.70;;
49223;SDS011;35050;51.316;5.994;2023-05-07T08:36:15;1.70;;;1.50;;
49223;SDS011;35050;51.316;5.994;2023-05-07T08:38:40;1.55;;;1.45;;
49223;SDS011;35050;51.316;5.994;2023-05-07T08:41:09;2.63;;;1.80;;
49223;SDS011;35050;51.316;5.994;2023-05-07T08:43:36;3.03;;;1.73;;
49223;SDS011;35050;51.316;5.994;2023-05-07T08:46:03;2.10;;;1.60;;
49223;SDS011;35050;51.316;5.994;2023-05-07T08:48:30;1.60;;;1.50;;
49223;SDS011;35050;51.316;5.994;2023-05-07T08:50:57;1.42;;;1.33;;
49223;SDS011;35050;51.316;5.994;2023-05-07T08:53:24;1.85;;;1.48;;
49223;SDS011;35050;51.316;5.994;2023-05-07T08:55:50;1.83;;;1.40;;
49223;SDS011;35050;51.316;5.994;2023-05-07T08:58:17;1.70;;;1.60;;
49223;SDS011;35050;51.316;5.994;2023-05-07T09:00:42;1.70;;;1.30;;
49223;SDS011;35050;51.316;5.994;2023-05-07T09:03:08;1.15;;;1.02;;
49223;SDS011;35050;51.316;5.994;2023-05-07T09:05:37;1.67;;;1.30;;
49223;SDS011;35050;51.316;5.994;2023-05-07T09:08:03;1.50;;;1.17;;
49223;SDS011;35050;51.316;5.994;2023-05-07T09:10:31;1.77;;;1.20;;
49223;SDS011;35050;51.316;5.994;2023-05-07T09:12:58;1.60;;;1.50;;
49223;SDS011;35050;51.316;5.994;2023-05-07T09:15:24;1.25;;;1.15;;
49223;SDS011;35050;51.316;5.994;2023-05-07T09:17:50;1.30;;;1.20;;
49223;SDS011;35050;51.316;5.994;2023-05-07T09:20:16;1.40;;;1.30;;
49223;SDS011;35050;51.316;5.994;2023-05-07T09:22:42;2.35;;;1.70;;
49223;SDS011;35050;51.316;5.994;2023-05-07T09:25:09;1.95;;;1.42;;
49223;SDS011;35050;51.316;5.994;2023-05-07T09:27:35;2.65;;;1.30;;
49223;SDS011;35050;51.316;5.994;2023-05-07T09:30:04;0.95;;;0.90;;
49223;SDS011;35050;51.316;5.994;2023-05-07T09:32:33;2.38;;;1.30;;
49223;SDS011;35050;51.316;5.994;2023-05-07T09:35:01;3.17;;;1.30;;
49223;SDS011;35050;51.316;5.994;2023-05-07T09:37:28;1.20;;;1.10;;
49223;SDS011;35050;51.316;5.994;2023-05-07T09:39:56;1.55;;;1.10;;
49223;SDS011;35050;51.316;5.994;2023-05-07T09:42:24;1.95;;;1.40;;
49223;SDS011;35050;51.316;5.994;2023-05-07T09:44:52;2.40;;;1.75;;
49223;SDS011;35050;51.316;5.994;2023-05-07T09:47:18;2.03;;;1.50;;
49223;SDS011;35050;51.316;5.994;2023-05-07T09:49:46;2.40;;;1.40;;
49223;SDS011;35050;51.316;5.994;2023-05-07T09:52:13;1.08;;;0.98;;
49223;SDS011;35050;51.316;5.994;2023-05-07T09:54:39;1.85;;;0.93;;
49223;SDS011;35050;51.316;5.994;2023-05-07T09:57:08;1.58;;;1.00;;
49223;SDS011;35050;51.316;5.994;2023-05-07T09:59:36;1.30;;;1.02;;
49223;SDS011;35050;51.316;5.994;2023-05-07T10:02:03;0.98;;;0.80;;
49223;SDS011;35050;51.316;5.994;2023-05-07T10:04:29;1.42;;;0.85;;
49223;SDS011;35050;51.316;5.994;2023-05-07T10:06:56;1.15;;;0.85;;
49223;SDS011;35050;51.316;5.994;2023-05-07T10:09:23;3.00;;;1.10;;
49223;SDS011;35050;51.316;5.994;2023-05-07T10:11:51;0.70;;;0.70;;
49223;SDS011;35050;51.316;5.994;2023-05-07T10:14:17;1.67;;;0.90;;
49223;SDS011;35050;51.316;5.994;2023-05-07T10:16:44;1.67;;;1.40;;
49223;SDS011;35050;51.316;5.994;2023-05-07T10:19:09;1.58;;;0.90;;
49223;SDS011;35050;51.316;5.994;2023-05-07T10:21:36;1.02;;;0.93;;
49223;SDS011;35050;51.316;5.994;2023-05-07T10:24:08;0.70;;;0.60;;
49223;SDS011;35050;51.316;5.994;2023-05-07T10:26:39;0.75;;;0.70;;
49223;SDS011;35050;51.316;5.994;2023-05-07T10:29:10;1.42;;;0.70;;
49223;SDS011;35050;51.316;5.994;2023-05-07T10:34:47;1.45;;;1.00;;
49223;SDS011;35050;51.316;5.994;2023-05-07T10:37:15;0.68;;;0.68;;
49223;SDS011;35050;51.316;5.994;2023-05-07T10:39:42;1.88;;;0.90;;
49223;SDS011;35050;51.316;5.994;2023-05-07T10:42:08;2.65;;;1.00;;
49223;SDS011;35050;51.316;5.994;2023-05-07T10:44:38;1.23;;;0.90;;
49223;SDS011;35050;51.316;5.994;2023-05-07T10:47:08;1.67;;;0.70;;
49223;SDS011;35050;51.316;5.994;2023-05-07T10:54:48;1.25;;;0.85;;
49223;SDS011;35050;51.316;5.994;2023-05-07T10:57:39;1.60;;;0.90;;
49223;SDS011;35050;51.316;5.994;2023-05-07T11:05:24;3.17;;;0.80;;
49223;SDS011;35050;51.316;5.994;2023-05-07T11:07:58;1.20;;;0.65;;
49223;SDS011;35050;51.316;5.994;2023-05-07T11:13:12;0.90;;;0.80;;
49223;SDS011;35050;51.316;5.994;2023-05-07T11:15:43;1.00;;;0.63;;
49223;SDS011;35050;51.316;5.994;2023-05-07T11:18:13;0.90;;;0.60;;
49223;SDS011;35050;51.316;5.994;2023-05-07T11:26:04;1.15;;;0.80;;
49223;SDS011;35050;51.316;5.994;2023-05-07T11:28:31;1.52;;;0.50;;
49223;SDS011;35050;51.316;5.994;2023-05-07T11:31:05;0.75;;;0.63;;
49223;SDS011;35050;51.316;5.994;2023-05-07T11:33:32;0.55;;;0.52;;
49223;SDS011;35050;51.316;5.994;2023-05-07T11:35:58;0.70;;;0.45;;
49223;SDS011;35050;51.316;5.994;2023-05-07T11:38:25;1.10;;;0.70;;
49223;SDS011;35050;51.316;5.994;2023-05-07T11:40:55;0.88;;;0.60;;
49223;SDS011;35050;51.316;5.994;2023-05-07T11:43:22;0.60;;;0.60;;
49223;SDS011;35050;51.316;5.994;2023-05-07T11:45:48;0.68;;;0.50;;
49223;SDS011;35050;51.316;5.994;2023-05-07T11:48:14;1.05;;;0.50;;
49223;SDS011;35050;51.316;5.994;2023-05-07T11:50:50;0.95;;;0.60;;
49223;SDS011;35050;51.316;5.994;2023-05-07T11:53:20;0.82;;;0.50;;
49223;SDS011;35050;51.316;5.994;2023-05-07T11:55:51;1.20;;;0.80;;
49223;SDS011;35050;51.316;5.994;2023-05-07T11:58:20;1.20;;;0.70;;
49223;SDS011;35050;51.316;5.994;2023-05-07T12:00:50;0.80;;;0.70;;
49223;SDS011;35050;51.316;5.994;2023-05-07T12:03:16;1.38;;;0.50;;
49223;SDS011;35050;51.316;5.994;2023-05-07T12:05:43;1.00;;;0.60;;
49223;SDS011;35050;51.316;5.994;2023-05-07T12:08:13;0.52;;;0.50;;
49223;SDS011;35050;51.316;5.994;2023-05-07T12:10:47;1.35;;;0.68;;
49223;SDS011;35050;51.316;5.994;2023-05-07T12:13:23;0.82;;;0.50;;
49223;SDS011;35050;51.316;5.994;2023-05-07T12:15:53;0.63;;;0.60;;
49223;SDS011;35050;51.316;5.994;2023-05-07T12:18:20;0.95;;;0.70;;
49223;SDS011;35050;51.316;5.994;2023-05-07T12:20:47;0.70;;;0.50;;
49223;SDS011;35050;51.316;5.994;2023-05-07T12:23:13;0.65;;;0.60;;
49223;SDS011;35050;51.316;5.994;2023-05-07T12:25:40;0.40;;;0.40;;
49223;SDS011;35050;51.316;5.994;2023-05-07T12:28:15;1.08;;;0.40;;
49223;SDS011;35050;51.316;5.994;2023-05-07T12:30:42;0.50;;;0.50;;
49223;SDS011;35050;51.316;5.994;2023-05-07T12:33:09;0.93;;;0.68;;
49223;SDS011;35050;51.316;5.994;2023-05-07T12:35:37;1.52;;;0.80;;
49223;SDS011;35050;51.316;5.994;2023-05-07T12:38:07;1.33;;;0.70;;
49223;SDS011;35050;51.316;5.994;2023-05-07T12:43:03;0.93;;;0.77;;
49223;SDS011;35050;51.316;5.994;2023-05-07T12:45:29;1.55;;;0.75;;
49223;SDS011;35050;51.316;5.994;2023-05-07T12:47:55;1.02;;;0.60;;
49223;SDS011;35050;51.316;5.994;2023-05-07T12:50:25;0.82;;;0.80;;
49223;SDS011;35050;51.316;5.994;2023-05-07T12:52:55;0.77;;;0.60;;
49223;SDS011;35050;51.316;5.994;2023-05-07T12:55:21;1.02;;;0.77;;
49223;SDS011;35050;51.316;5.994;2023-05-07T12:57:49;0.80;;;0.77;;
49223;SDS011;35050;51.316;5.994;2023-05-07T13:00:16;0.60;;;0.50;;
49223;SDS011;35050;51.316;5.994;2023-05-07T13:02:43;0.98;;;0.50;;
49223;SDS011;35050;51.316;5.994;2023-05-07T13:05:11;0.63;;;0.60;;
49223;SDS011;35050;51.316;5.994;2023-05-07T13:07:37;1.05;;;0.63;;
49223;SDS011;35050;51.316;5.994;2023-05-07T13:10:03;2.90;;;0.68;;
49223;SDS011;35050;51.316;5.994;2023-05-07T13:12:29;0.50;;;0.50;;
49223;SDS011;35050;51.316;5.994;2023-05-07T13:14:55;0.60;;;0.60;;
49223;SDS011;35050;51.316;5.994;2023-05-07T13:17:21;0.60;;;0.60;;
49223;SDS011;35050;51.316;5.994;2023-05-07T13:19:46;1.00;;;0.50;;
49223;SDS011;35050;51.316;5.994;2023-05-07T13:22:12;2.13;;;0.68;;
49223;SDS011;35050;51.316;5.994;2023-05-07T13:24:37;0.85;;;0.70;;
49223;SDS011;35050;51.316;5.994;2023-05-07T13:27:06;0.68;;;0.50;;
49223;SDS011;35050;51.316;5.994;2023-05-07T13:29:32;1.30;;;0.80;;
49223;SDS011;35050;51.316;5.994;2023-05-07T13:31:57;4.00;;;1.25;;
49223;SDS011;35050;51.316;5.994;2023-05-07T13:34:23;2.97;;;1.20;;
49223;SDS011;35050;51.316;5.994;2023-05-07T13:36:49;1.92;;;1.33;;
49223;SDS011;35050;51.316;5.994;2023-05-07T13:39:15;6.95;;;1.55;;
49223;SDS011;35050;51.316;5.994;2023-05-07T13:41:41;3.55;;;1.23;;
49223;SDS011;35050;51.316;5.994;2023-05-07T13:44:06;3.47;;;1.73;;
49223;SDS011;35050;51.316;5.994;2023-05-07T13:46:32;3.60;;;1.33;;
49223;SDS011;35050;51.316;5.994;2023-05-07T13:48:58;2.55;;;1.45;;
49223;SDS011;35050;51.316;5.994;2023-05-07T13:51:23;2.17;;;1.40;;
49223;SDS011;35050;51.316;5.994;2023-05-07T13:53:49;2.08;;;1.15;;
49223;SDS011;35050;51.316;5.994;2023-05-07T13:56:15;0.82;;;0.75;;
49223;SDS011;35050;51.316;5.994;2023-05-07T13:58:41;1.30;;;0.85;;
49223;SDS011;35050;51.316;5.994;2023-05-07T14:01:06;2.10;;;0.98;;
49223;SDS011;35050;51.316;5.994;2023-05-07T14:03:32;1.55;;;1.00;;
49223;SDS011;35050;51.316;5.994;2023-05-07T14:05:59;1.52;;;0.90;;
49223;SDS011;35050;51.316;5.994;2023-05-07T14:08:26;1.15;;;0.85;;
49223;SDS011;35050;51.316;5.994;2023-05-07T14:10:52;0.80;;;0.57;;
49223;SDS011;35050;51.316;5.994;2023-05-07T14:13:18;1.38;;;0.70;;
49223;SDS011;35050;51.316;5.994;2023-05-07T14:15:44;1.00;;;0.68;;
49223;SDS011;35050;51.316;5.994;2023-05-07T14:18:11;0.82;;;0.60;;
49223;SDS011;35050;51.316;5.994;2023-05-07T14:20:37;2.25;;;0.80;;
49223;SDS011;35050;51.316;5.994;2023-05-07T14:23:03;1.85;;;0.90;;
49223;SDS011;35050;51.316;5.994;2023-05-07T14:25:29;0.60;;;0.52;;
49223;SDS011;35050;51.316;5.994;2023-05-07T14:27:54;0.70;;;0.68;;
49223;SDS011;35050;51.316;5.994;2023-05-07T14:30:20;0.85;;;0.68;;
49223;SDS011;35050;51.316;5.994;2023-05-07T14:32:49;0.95;;;0.65;;
49223;SDS011;35050;51.316;5.994;2023-05-07T14:35:15;0.80;;;0.80;;
49223;SDS011;35050;51.316;5.994;2023-05-07T14:37:41;1.40;;;0.90;;
49223;SDS011;35050;51.316;5.994;2023-05-07T14:40:08;1.33;;;0.80;;
49223;SDS011;35050;51.316;5.994;2023-05-07T14:42:34;1.10;;;0.70;;
49223;SDS011;35050;51.316;5.994;2023-05-07T14:44:59;0.60;;;0.60;;
49223;SDS011;35050;51.316;5.994;2023-05-07T14:47:25;0.90;;;0.65;;
49223;SDS011;35050;51.316;5.994;2023-05-07T14:49:50;1.02;;;0.75;;
49223;SDS011;35050;51.316;5.994;2023-05-07T14:52:18;1.77;;;0.73;;
49223;SDS011;35050;51.316;5.994;2023-05-07T14:54:43;1.20;;;0.70;;
49223;SDS011;35050;51.316;5.994;2023-05-07T14:57:10;0.90;;;0.80;;
49223;SDS011;35050;51.316;5.994;2023-05-07T14:59:38;1.75;;;0.98;;
49223;SDS011;35050;51.316;5.994;2023-05-07T15:02:04;1.00;;;0.90;;
49223;SDS011;35050;51.316;5.994;2023-05-07T15:04:32;1.50;;;1.00;;
49223;SDS011;35050;51.316;5.994;2023-05-07T15:06:58;1.40;;;1.00;;
49223;SDS011;35050;51.316;5.994;2023-05-07T15:09:24;1.50;;;0.70;;